createdAt,value
2022-12-22T00:00:00.487Z,1.1
2022-12-22T00:01:00.450Z,1.1
2022-12-22T00:02:00.586Z,1.1
2022-12-22T00:03:00.626Z,1.1
2022-12-22T00:04:00.632Z,1.1
2022-12-22T00:05:00.449Z,1.1
2022-12-22T00:06:00.488Z,1.1
2022-12-22T00:07:00.452Z,1.1
2022-12-22T00:08:00.481Z,1.1
2022-12-22T00:09:05.406Z,1.1
2022-12-22T00:10:00.456Z,1.1
2022-12-22T00:11:00.474Z,1.1
2022-12-22T00:12:00.448Z,1.1
2022-12-22T00:13:00.488Z,1.1
2022-12-22T00:14:00.503Z,1.1
2022-12-22T00:15:00.453Z,1.1
2022-12-22T00:16:00.469Z,1.1
2022-12-22T00:17:00.526Z,1.1
2022-12-22T00:18:00.496Z,1.1
2022-12-22T00:19:00.455Z,1.1
2022-12-22T00:20:00.477Z,1.1
2022-12-22T00:21:00.458Z,1.1
2022-12-22T00:22:00.459Z,1.1
2022-12-22T00:23:00.483Z,1.1
2022-12-22T00:24:00.476Z,1.1
2022-12-22T00:25:00.464Z,1.1
2022-12-22T00:26:00.488Z,1.1
2022-12-22T00:27:00.466Z,1.1
2022-12-22T00:28:00.487Z,1.1
2022-12-22T00:29:00.471Z,1.1
2022-12-22T00:30:00.533Z,1.1
2022-12-22T00:31:00.550Z,1.1
2022-12-22T00:32:00.472Z,1.1
2022-12-22T00:33:00.495Z,1.1
2022-12-22T00:34:00.472Z,1.1
2022-12-22T00:35:00.512Z,1.1
2022-12-22T00:36:00.495Z,1.1
2022-12-22T00:37:00.478Z,1.1
2022-12-22T00:38:00.498Z,1.1
2022-12-22T00:39:00.483Z,1.1
2022-12-22T00:40:00.502Z,1.1
2022-12-22T00:41:00.502Z,1.1
2022-12-22T00:42:00.507Z,1.1
2022-12-22T00:43:00.496Z,1.1
2022-12-22T00:44:00.478Z,1.1
2022-12-22T00:45:00.490Z,1.1
2022-12-22T00:46:00.665Z,1.1
2022-12-22T00:47:00.488Z,1.1
2022-12-22T00:48:00.535Z,1.1
2022-12-22T00:49:00.511Z,1.1
2022-12-22T00:50:00.500Z,1.1
2022-12-22T00:51:00.491Z,1.1
2022-12-22T00:52:00.498Z,1.1
2022-12-22T00:53:00.516Z,1.1
2022-12-22T00:54:00.520Z,1.1
2022-12-22T00:55:00.528Z,1.1
2022-12-22T00:56:00.518Z,1.1
2022-12-22T00:57:00.502Z,1.1
2022-12-22T00:58:00.512Z,1.1
2022-12-22T00:59:00.518Z,1.1
2022-12-22T01:00:00.502Z,1.1
2022-12-22T01:01:00.576Z,1.1
2022-12-22T01:02:00.665Z,1.1
2022-12-22T01:03:00.671Z,1.1
2022-12-22T01:04:00.527Z,1.1
2022-12-22T01:05:00.539Z,1.1
2022-12-22T01:06:00.507Z,1.1
2022-12-22T01:07:00.504Z,1.1
2022-12-22T01:08:00.519Z,1.1
2022-12-22T01:09:00.524Z,1.1
2022-12-22T01:10:00.507Z,1.1
2022-12-22T01:11:00.526Z,1.1
2022-12-22T01:12:00.532Z,1.1
2022-12-22T01:13:00.544Z,1.1
2022-12-22T01:14:00.509Z,1.1
2022-12-22T01:15:00.540Z,1.1
2022-12-22T01:16:00.613Z,1.1
2022-12-22T01:17:00.518Z,1.1
2022-12-22T01:18:00.588Z,1.1
2022-12-22T01:19:00.523Z,1.1
2022-12-22T01:20:00.575Z,1.1
2022-12-22T01:21:00.540Z,1.1
2022-12-22T01:22:00.515Z,1.1
2022-12-22T01:23:00.538Z,1.1
2022-12-22T01:24:00.540Z,1.1
2022-12-22T01:25:00.551Z,1.1
2022-12-22T01:26:00.540Z,1.1
2022-12-22T01:27:00.528Z,1.1
2022-12-22T01:28:00.557Z,1.1
2022-12-22T01:29:00.528Z,1.1
2022-12-22T01:30:00.546Z,1.1
2022-12-22T01:31:00.666Z,1.1
2022-12-22T01:32:00.539Z,1.1
2022-12-22T01:33:00.553Z,1.1
2022-12-22T01:34:00.543Z,1.1
2022-12-22T01:35:00.551Z,1.1
2022-12-22T01:36:00.560Z,1.1
2022-12-22T01:37:00.542Z,1.1
2022-12-22T01:38:00.540Z,1.1
2022-12-22T01:39:00.543Z,1.1
2022-12-22T01:40:00.579Z,1.1
2022-12-22T01:41:00.575Z,1.1
2022-12-22T01:42:00.549Z,1.1
2022-12-22T01:43:00.540Z,1.1
2022-12-22T01:44:00.544Z,1.1
2022-12-22T01:45:00.556Z,1.1
2022-12-22T01:46:00.610Z,1.1
2022-12-22T01:47:00.555Z,1.1
2022-12-22T01:48:00.577Z,1.1
2022-12-22T01:49:00.548Z,1.1
2022-12-22T01:50:00.594Z,1.1
2022-12-22T01:51:00.577Z,1.1
2022-12-22T01:52:00.547Z,1.1
2022-12-22T01:53:00.568Z,1.1
2022-12-22T01:54:00.585Z,1.1
2022-12-22T01:55:00.564Z,1.1
2022-12-22T01:56:00.580Z,1.1
2022-12-22T01:57:00.562Z,1.1
2022-12-22T01:58:00.575Z,1.1
2022-12-22T01:59:00.565Z,1.1
2022-12-22T02:00:00.664Z,1.1
2022-12-22T02:01:00.872Z,1.1
2022-12-22T02:02:00.763Z,1.1
2022-12-22T02:03:00.764Z,1.1
2022-12-22T02:04:00.662Z,1.1
2022-12-22T02:05:00.567Z,1.1
2022-12-22T02:06:00.626Z,1.1
2022-12-22T02:07:00.815Z,1.1
2022-12-22T02:08:00.571Z,1.1
2022-12-22T02:09:00.588Z,1.1
2022-12-22T02:10:00.589Z,1.1
2022-12-22T02:11:00.627Z,1.1
2022-12-22T02:12:00.581Z,1.1
2022-12-22T02:13:00.584Z,1.1
2022-12-22T02:14:00.606Z,1.1
2022-12-22T02:15:00.591Z,1.1
2022-12-22T02:16:00.681Z,1.1
2022-12-22T02:17:00.596Z,1.1
2022-12-22T02:18:00.583Z,1.1
2022-12-22T02:19:00.581Z,1.1
2022-12-22T02:20:00.591Z,1.1
2022-12-22T02:21:00.607Z,1.1
2022-12-22T02:22:00.596Z,1.1
2022-12-22T02:23:00.614Z,1.1
2022-12-22T02:24:00.613Z,1.1
2022-12-22T02:25:00.612Z,1.1
2022-12-22T02:26:00.630Z,1.1
2022-12-22T02:27:00.606Z,1.1
2022-12-22T02:28:00.595Z,1.1
2022-12-22T02:29:00.615Z,1.1
2022-12-22T02:30:00.604Z,1.1
2022-12-22T02:31:00.648Z,1.1
2022-12-22T02:32:00.601Z,1.1
2022-12-22T02:33:05.381Z,1.1
2022-12-22T02:34:00.615Z,1.1
2022-12-22T02:35:00.590Z,1.1
2022-12-22T02:36:00.626Z,1.1
2022-12-22T02:37:00.599Z,1.1
2022-12-22T02:38:00.602Z,1.1
2022-12-22T02:39:00.686Z,1.1
2022-12-22T02:40:01.644Z,1.1
2022-12-22T02:41:00.619Z,1.1
2022-12-22T02:42:00.614Z,1.1
2022-12-22T02:43:00.607Z,1.1
2022-12-22T02:44:00.627Z,1.1
2022-12-22T02:45:00.720Z,1.1
2022-12-22T02:46:00.620Z,1.1
2022-12-22T02:47:00.675Z,1.1
2022-12-22T02:48:00.722Z,1.1
2022-12-22T02:49:00.624Z,1.1
2022-12-22T02:50:00.642Z,1.1
2022-12-22T02:51:00.631Z,1.1
2022-12-22T02:52:00.614Z,1.1
2022-12-22T02:53:00.654Z,1.1
2022-12-22T02:54:00.685Z,1.1
2022-12-22T02:55:00.667Z,1.1
2022-12-22T02:56:00.710Z,1.1
2022-12-22T02:57:00.672Z,1.1
2022-12-22T02:58:00.624Z,1.1
2022-12-22T02:59:00.675Z,1.1
2022-12-22T03:00:01.679Z,1.1
2022-12-22T03:01:01.759Z,1.1
2022-12-22T03:02:01.880Z,1.1
2022-12-22T03:03:01.950Z,1.1
2022-12-22T03:04:01.713Z,1.1
2022-12-22T03:05:00.329Z,1.1
2022-12-22T03:06:00.363Z,1.1
2022-12-22T03:07:00.324Z,1.1
2022-12-22T03:08:06.116Z,1.1
2022-12-22T03:09:00.333Z,1.1
2022-12-22T03:10:00.393Z,1.1
2022-12-22T03:11:00.369Z,1.1
2022-12-22T03:12:00.370Z,1.1
2022-12-22T03:13:00.333Z,1.1
2022-12-22T03:14:00.333Z,1.1
2022-12-22T03:15:00.353Z,1.1
2022-12-22T03:16:00.402Z,1.1
2022-12-22T03:17:00.336Z,1.1
2022-12-22T03:18:00.334Z,1.1
2022-12-22T03:19:00.350Z,1.1
2022-12-22T03:20:00.388Z,1.1
2022-12-22T03:21:00.360Z,1.1
2022-12-22T03:22:00.342Z,1.1
2022-12-22T03:23:00.357Z,1.1
2022-12-22T03:24:00.351Z,1.1
2022-12-22T03:25:00.418Z,1.1
2022-12-22T03:26:00.365Z,1.1
2022-12-22T03:27:00.377Z,1.1
2022-12-22T03:28:00.401Z,1.1
2022-12-22T03:29:00.346Z,1.1
2022-12-22T03:30:00.352Z,1.1
2022-12-22T03:31:00.384Z,1.1
2022-12-22T03:32:00.461Z,1.1
2022-12-22T03:33:00.380Z,1.1
2022-12-22T03:34:00.372Z,1.1
2022-12-22T03:35:00.356Z,1.1
2022-12-22T03:36:00.363Z,1.1
2022-12-22T03:37:00.354Z,1.1
2022-12-22T03:38:00.411Z,1.1
2022-12-22T03:39:00.358Z,1.1
2022-12-22T03:40:00.358Z,1.1
2022-12-22T03:41:00.406Z,1.1
2022-12-22T03:42:00.392Z,1.1
2022-12-22T03:43:00.378Z,1.1
2022-12-22T03:44:00.394Z,1.1
2022-12-22T03:45:00.372Z,1.1
2022-12-22T03:46:00.360Z,1.1
2022-12-22T03:47:00.478Z,1.1
2022-12-22T03:48:00.385Z,1.1
2022-12-22T03:49:00.364Z,1.1
2022-12-22T03:50:00.376Z,1.1
2022-12-22T03:51:00.419Z,1.1
2022-12-22T03:52:00.380Z,1.1
2022-12-22T03:53:00.407Z,1.1
2022-12-22T03:54:00.391Z,1.1
2022-12-22T03:55:00.375Z,1.1
2022-12-22T03:56:07.222Z,1.1
2022-12-22T03:57:00.395Z,1.1
2022-12-22T03:58:00.400Z,1.1
2022-12-22T03:59:00.410Z,1.1
2022-12-22T04:00:00.403Z,1.1
2022-12-22T04:01:00.485Z,1.1
2022-12-22T04:02:00.633Z,1.1
2022-12-22T04:03:00.571Z,1.1
2022-12-22T04:04:00.409Z,1.1
2022-12-22T04:05:00.394Z,1.1
2022-12-22T04:06:00.415Z,1.1
2022-12-22T04:07:00.386Z,1.1
2022-12-22T04:08:00.401Z,1.1
2022-12-22T04:09:00.419Z,1.1
2022-12-22T04:10:00.404Z,1.1
2022-12-22T04:11:00.390Z,1.1
2022-12-22T04:12:00.446Z,1.1
2022-12-22T04:13:00.391Z,1.1
2022-12-22T04:14:00.411Z,1.1
2022-12-22T04:15:00.417Z,1.1
2022-12-22T04:16:00.452Z,1.1
2022-12-22T04:17:00.505Z,1.1
2022-12-22T04:18:00.415Z,1.1
2022-12-22T04:19:00.415Z,1.1
2022-12-22T04:20:00.397Z,1.1
2022-12-22T04:21:00.403Z,1.1
2022-12-22T04:22:00.415Z,1.1
2022-12-22T04:23:00.397Z,1.1
2022-12-22T04:24:00.441Z,1.1
2022-12-22T04:25:00.472Z,1.1
2022-12-22T04:26:00.423Z,1.1
2022-12-22T04:27:00.455Z,1.1
2022-12-22T04:28:00.409Z,1.1
2022-12-22T04:29:00.491Z,1.1
2022-12-22T04:30:00.425Z,1.1
2022-12-22T04:31:00.442Z,1.1
2022-12-22T04:32:00.562Z,1.1
2022-12-22T04:33:00.435Z,1.1
2022-12-22T04:34:00.439Z,1.1
2022-12-22T04:35:00.442Z,1.1
2022-12-22T04:36:00.429Z,1.1
2022-12-22T04:37:09.843Z,1.1
2022-12-22T04:38:00.435Z,1.1
2022-12-22T04:39:00.414Z,1.1
2022-12-22T04:40:00.421Z,1.1
2022-12-22T04:41:00.437Z,1.1
2022-12-22T04:42:00.434Z,1.1
2022-12-22T04:43:00.444Z,1.1
2022-12-22T04:44:00.423Z,1.1
2022-12-22T04:45:00.425Z,1.1
2022-12-22T04:46:00.518Z,1.1
2022-12-22T04:47:00.448Z,1.1
2022-12-22T04:48:00.442Z,1.1
2022-12-22T04:49:00.839Z,1.1
2022-12-22T04:50:00.437Z,1.1
2022-12-22T04:51:00.448Z,1.1
2022-12-22T04:52:00.434Z,1.1
2022-12-22T04:53:00.450Z,1.1
2022-12-22T04:54:00.444Z,1.1
2022-12-22T04:55:00.447Z,1.1
2022-12-22T04:56:00.452Z,1.1
2022-12-22T04:57:00.459Z,1.1
2022-12-22T04:58:00.450Z,1.1
2022-12-22T04:59:00.450Z,1.1
2022-12-22T05:00:00.600Z,1.1
2022-12-22T05:01:00.491Z,1.1
2022-12-22T05:02:00.601Z,1.1
2022-12-22T05:03:00.579Z,1.1
2022-12-22T05:04:00.465Z,1.1
2022-12-22T05:05:00.479Z,1.1
2022-12-22T05:06:00.472Z,1.1
2022-12-22T05:07:00.454Z,1.1
2022-12-22T05:08:00.445Z,1.1
2022-12-22T05:09:00.463Z,1.1
2022-12-22T05:10:00.448Z,1.1
2022-12-22T05:11:00.503Z,1.1
2022-12-22T05:12:00.477Z,1.1
2022-12-22T05:13:00.453Z,1.1
2022-12-22T05:14:06.807Z,1.1
2022-12-22T05:15:00.464Z,1.1
2022-12-22T05:16:00.479Z,1.1
2022-12-22T05:17:00.479Z,1.1
2022-12-22T05:18:00.485Z,1.1
2022-12-22T05:19:00.491Z,1.1
2022-12-22T05:20:00.467Z,1.1
2022-12-22T05:21:00.494Z,1.1
2022-12-22T05:22:00.494Z,1.1
2022-12-22T05:23:00.474Z,1.1
2022-12-22T05:24:00.491Z,1.1
2022-12-22T05:25:00.473Z,1.1
2022-12-22T05:26:00.497Z,1.1
2022-12-22T05:27:00.490Z,1.1
2022-12-22T05:28:00.485Z,1.1
2022-12-22T05:29:00.484Z,1.1
2022-12-22T05:30:00.489Z,1.1
2022-12-22T05:31:00.578Z,1.1
2022-12-22T05:32:00.477Z,1.1
2022-12-22T05:33:00.492Z,1.1
2022-12-22T05:34:00.497Z,1.1
2022-12-22T05:35:00.480Z,1.1
2022-12-22T05:36:00.504Z,1.1
2022-12-22T05:37:00.481Z,1.1
2022-12-22T05:38:00.481Z,1.1
2022-12-22T05:39:00.496Z,1.1
2022-12-22T05:40:00.493Z,1.1
2022-12-22T05:41:04.441Z,1.1
2022-12-22T05:42:00.481Z,1.1
2022-12-22T05:43:00.482Z,1.1
2022-12-22T05:44:00.506Z,1.1
2022-12-22T05:45:00.484Z,1.1
2022-12-22T05:46:00.583Z,1.1
2022-12-22T05:47:00.484Z,1.1
2022-12-22T05:48:00.506Z,1.1
2022-12-22T05:49:00.506Z,1.1
2022-12-22T05:50:00.519Z,1.1
2022-12-22T05:51:00.518Z,1.1
2022-12-22T05:52:00.499Z,1.1
2022-12-22T05:53:00.500Z,1.1
2022-12-22T05:54:00.537Z,1.1
2022-12-22T05:55:00.521Z,1.1
2022-12-22T05:56:00.515Z,1.1
2022-12-22T05:57:00.513Z,1.1
2022-12-22T05:58:00.496Z,1.1
2022-12-22T05:59:00.510Z,1.1
2022-12-22T06:00:00.522Z,1.1
2022-12-22T06:01:00.533Z,1.1
2022-12-22T06:02:00.651Z,1.1
2022-12-22T06:03:00.808Z,1.1
2022-12-22T06:04:00.967Z,1.1
2022-12-22T06:05:00.514Z,1.1
2022-12-22T06:06:00.539Z,1.1
2022-12-22T06:07:00.528Z,1.1
2022-12-22T06:08:00.513Z,1.1
2022-12-22T06:09:00.519Z,1.1
2022-12-22T06:10:02.688Z,1.1
2022-12-22T06:11:00.541Z,1.1
2022-12-22T06:12:00.531Z,1.1
2022-12-22T06:13:00.518Z,1.1
2022-12-22T06:14:00.538Z,1.1
2022-12-22T06:15:00.534Z,1.1
2022-12-22T06:16:00.608Z,1.1
2022-12-22T06:17:00.515Z,1.1
2022-12-22T06:18:00.680Z,1.1
2022-12-22T06:19:00.538Z,1.1
2022-12-22T06:20:00.524Z,1.1
2022-12-22T06:21:00.567Z,1.1
2022-12-22T06:22:00.526Z,1.1
2022-12-22T06:23:00.572Z,1.1
2022-12-22T06:24:00.522Z,1.1
2022-12-22T06:25:00.522Z,1.1
2022-12-22T06:26:00.550Z,1.1
2022-12-22T06:27:00.538Z,1.1
2022-12-22T06:28:00.554Z,1.1
2022-12-22T06:29:00.543Z,1.1
2022-12-22T06:30:00.557Z,1.1
2022-12-22T06:31:00.618Z,1.1
2022-12-22T06:32:00.591Z,1.1
2022-12-22T06:33:00.565Z,1.1
2022-12-22T06:34:00.623Z,1.1
2022-12-22T06:35:00.657Z,1.1
2022-12-22T06:36:01.443Z,1.1
2022-12-22T06:37:00.670Z,1.1
2022-12-22T06:38:00.629Z,1.1
2022-12-22T06:39:00.635Z,1.1
2022-12-22T06:40:00.644Z,1.1
2022-12-22T06:41:00.671Z,1.1
2022-12-22T06:42:00.658Z,1.1
2022-12-22T06:43:07.854Z,1.4
2022-12-22T06:44:00.681Z,1.6
2022-12-22T06:45:00.637Z,2
2022-12-22T06:46:00.747Z,2.3
2022-12-22T06:47:00.738Z,2.9
2022-12-22T06:48:00.652Z,3.5
2022-12-22T06:49:00.731Z,4.1
2022-12-22T06:50:00.631Z,4.8
2022-12-22T06:51:00.706Z,5.4
2022-12-22T06:52:00.664Z,6.2
2022-12-22T06:53:00.654Z,6.9
2022-12-22T06:54:00.691Z,8.6
2022-12-22T06:55:00.612Z,9.6
2022-12-22T06:56:00.657Z,11.5
2022-12-22T06:57:00.644Z,14.1
2022-12-22T06:58:00.719Z,16.8
2022-12-22T06:59:00.816Z,20.9
2022-12-22T07:00:00.572Z,23.5
2022-12-22T07:01:00.621Z,25.3
2022-12-22T07:02:00.778Z,30.6
2022-12-22T07:03:00.921Z,30.2
2022-12-22T07:04:00.691Z,25.9
2022-12-22T07:05:00.569Z,22.4
2022-12-22T07:06:00.609Z,19.9
2022-12-22T07:07:00.613Z,22.9
2022-12-22T07:08:07.641Z,22.1
2022-12-22T07:09:00.570Z,19.4
2022-12-22T07:10:00.583Z,21.4
2022-12-22T07:11:00.613Z,21.9
2022-12-22T07:12:00.607Z,28.1
2022-12-22T07:13:00.578Z,29.1
2022-12-22T07:14:00.604Z,34.9
2022-12-22T07:15:00.574Z,25.3
2022-12-22T07:16:01.755Z,27.8
2022-12-22T07:17:00.597Z,38.4
2022-12-22T07:18:00.594Z,37.5
2022-12-22T07:19:00.601Z,47
2022-12-22T07:20:00.644Z,48.2
2022-12-22T07:21:00.607Z,72.3
2022-12-22T07:22:00.616Z,79.6
2022-12-22T07:23:00.587Z,79.6
2022-12-22T07:24:00.604Z,93
2022-12-22T07:25:00.600Z,89.7
2022-12-22T07:26:00.645Z,75
2022-12-22T07:27:00.613Z,72.3
2022-12-22T07:28:00.630Z,91.9
2022-12-22T07:29:00.624Z,118.1
2022-12-22T07:30:00.639Z,111.2
2022-12-22T07:31:00.690Z,136.3
2022-12-22T07:32:00.623Z,116.7
2022-12-22T07:33:00.596Z,122.4
2022-12-22T07:34:00.621Z,163.1
2022-12-22T07:35:05.195Z,192.8
2022-12-22T07:36:00.612Z,212.2
2022-12-22T07:37:00.618Z,188.3
2022-12-22T07:38:00.619Z,225.3
2022-12-22T07:39:00.602Z,214.8
2022-12-22T07:40:00.611Z,225.3
2022-12-22T07:41:04.999Z,256.9
2022-12-22T07:42:00.636Z,253.9
2022-12-22T07:43:00.629Z,276.1
2022-12-22T07:44:00.645Z,303.8
2022-12-22T07:45:00.611Z,296.6
2022-12-22T07:46:00.735Z,300.2
2022-12-22T07:47:00.712Z,307.4
2022-12-22T07:48:00.633Z,279.4
2022-12-22T07:49:00.639Z,276.1
2022-12-22T07:50:00.625Z,293.1
2022-12-22T07:51:00.634Z,326.4
2022-12-22T07:52:00.637Z,330.3
2022-12-22T07:53:00.620Z,303.8
2022-12-22T07:54:00.641Z,286.1
2022-12-22T07:55:00.628Z,359.1
2022-12-22T07:56:00.657Z,490.1
2022-12-22T07:57:00.658Z,514.1
2022-12-22T07:58:00.639Z,478.5
2022-12-22T07:59:00.643Z,461.7
2022-12-22T08:00:00.621Z,467.2
2022-12-22T08:01:00.631Z,572.5
2022-12-22T08:02:00.828Z,478.5
2022-12-22T08:03:00.794Z,508
2022-12-22T08:04:00.650Z,467.2
2022-12-22T08:05:00.760Z,372.2
2022-12-22T08:06:01.164Z,359.1
2022-12-22T08:07:01.186Z,399.9
2022-12-22T08:08:01.101Z,496
2022-12-22T08:09:01.013Z,445.4
2022-12-22T08:10:00.638Z,414.5
2022-12-22T08:11:00.646Z,354.9
2022-12-22T08:12:00.661Z,450.8
2022-12-22T08:13:00.723Z,409.6
2022-12-22T08:14:01.857Z,502
2022-12-22T08:15:00.648Z,593.4
2022-12-22T08:16:00.697Z,736
2022-12-22T08:17:00.720Z,653
2022-12-22T08:18:00.684Z,593.4
2022-12-22T08:19:00.667Z,532.9
2022-12-22T08:20:00.650Z,424.6
2022-12-22T08:21:00.669Z,330.3
2022-12-22T08:22:00.680Z,279.4
2022-12-22T08:23:00.668Z,307.4
2022-12-22T08:24:00.657Z,269.5
2022-12-22T08:25:00.659Z,296.6
2022-12-22T08:26:00.669Z,266.3
2022-12-22T08:27:01.042Z,303.8
2022-12-22T08:28:00.990Z,326.4
2022-12-22T08:29:01.003Z,385.9
2022-12-22T08:30:01.071Z,472.9
2022-12-22T08:31:01.280Z,334.3
2022-12-22T08:32:01.213Z,395.2
2022-12-22T08:33:01.030Z,354.9
2022-12-22T08:34:00.709Z,376.7
2022-12-22T08:35:00.661Z,565.7
2022-12-22T08:36:07.529Z,622.5
2022-12-22T08:37:01.070Z,586.4
2022-12-22T08:38:00.675Z,607.8
2022-12-22T08:39:00.663Z,668.8
2022-12-22T08:40:00.665Z,1066.3
2022-12-22T08:41:00.702Z,1245.7
2022-12-22T08:42:00.683Z,1216.2
2022-12-22T08:43:00.672Z,1041.1
2022-12-22T08:44:00.670Z,992.5
2022-12-22T08:45:00.665Z,901.9
2022-12-22T08:46:00.710Z,790.8
2022-12-22T08:47:00.716Z,829.5
2022-12-22T08:48:00.685Z,980.7
2022-12-22T08:49:00.704Z,957.5
2022-12-22T08:50:00.687Z,1028.7
2022-12-22T08:51:00.725Z,744.8
2022-12-22T08:52:00.730Z,514.1
2022-12-22T08:53:00.691Z,520.3
2022-12-22T08:54:05.918Z,753.8
2022-12-22T08:55:00.705Z,992.5
2022-12-22T08:56:00.714Z,1028.7
2022-12-22T08:57:00.697Z,615.1
2022-12-22T08:58:00.685Z,607.8
2022-12-22T08:59:00.702Z,552.4
2022-12-22T09:00:00.698Z,532.9
2022-12-22T09:01:00.753Z,429.7
2022-12-22T09:02:00.907Z,630
2022-12-22T09:03:00.880Z,744.8
2022-12-22T09:04:01.319Z,839.5
2022-12-22T09:05:02.012Z,880.6
2022-12-22T09:06:01.126Z,934.9
2022-12-22T09:07:01.226Z,1028.7
2022-12-22T09:08:00.859Z,1079.1
2022-12-22T09:09:00.564Z,1201.7
2022-12-22T09:10:00.531Z,1472.7
2022-12-22T09:11:00.518Z,1387.2
2022-12-22T09:12:00.475Z,1472.7
2022-12-22T09:13:00.444Z,1187.5
2022-12-22T09:14:00.425Z,1620.5
2022-12-22T09:15:00.400Z,1508.3
2022-12-22T09:16:00.460Z,1370.7
2022-12-22T09:17:00.476Z,1275.8
2022-12-22T09:18:00.301Z,1783.3
2022-12-22T09:19:00.283Z,1741
2022-12-22T09:20:00.299Z,1659.7
2022-12-22T09:21:00.229Z,1601.3
2022-12-22T09:22:00.251Z,1322.4
2022-12-22T09:23:00.242Z,1187.5
2022-12-22T09:24:00.216Z,1245.7
2022-12-22T09:25:00.228Z,1230.8
2022-12-22T09:26:00.232Z,1118.6
2022-12-22T09:27:00.221Z,1105.3
2022-12-22T09:28:00.232Z,1092.1
2022-12-22T09:29:00.228Z,980.7
2022-12-22T09:30:00.256Z,957.5
2022-12-22T09:31:00.251Z,1245.7
2022-12-22T09:32:00.322Z,1455.2
2022-12-22T09:33:00.255Z,1659.7
2022-12-22T09:34:00.271Z,1472.7
2022-12-22T09:35:00.270Z,1370.7
2022-12-22T09:36:00.245Z,1403.9
2022-12-22T09:37:00.246Z,1741
2022-12-22T09:38:00.237Z,2159.2
2022-12-22T09:39:00.257Z,2522.4
2022-12-22T09:40:00.255Z,2133.6
2022-12-22T09:41:00.238Z,1826.4
2022-12-22T09:42:00.245Z,1601.3
2022-12-22T09:43:00.248Z,1092.1
2022-12-22T09:44:00.244Z,1173.3
2022-12-22T09:45:00.279Z,1245.7
2022-12-22T09:46:00.286Z,1145.6
2022-12-22T09:47:00.267Z,1016.5
2022-12-22T09:48:00.249Z,1016.5
2022-12-22T09:49:00.255Z,1306.7
2022-12-22T09:50:00.280Z,1338.3
2022-12-22T09:51:00.255Z,1582.3
2022-12-22T09:52:00.300Z,1659.7
2022-12-22T09:53:00.269Z,1640
2022-12-22T09:54:00.853Z,1306.7
2022-12-22T09:55:00.711Z,1526.4
2022-12-22T09:56:00.737Z,1306.7
2022-12-22T09:57:00.678Z,1420.8
2022-12-22T09:58:00.256Z,1275.8
2022-12-22T09:59:00.340Z,1455.2
2022-12-22T10:00:00.296Z,1826.4
2022-12-22T10:01:00.331Z,1962.2
2022-12-22T10:02:00.350Z,2211.5
2022-12-22T10:03:00.331Z,2462.8
2022-12-22T10:04:01.143Z,2433.5
2022-12-22T10:05:00.333Z,2319.9
2022-12-22T10:06:00.297Z,2133.6
2022-12-22T10:07:00.268Z,1962.2
2022-12-22T10:08:00.268Z,1938.9
2022-12-22T10:09:00.275Z,1985.8
2022-12-22T10:10:00.283Z,2159.2
2022-12-22T10:11:00.290Z,2009.8
2022-12-22T10:12:00.278Z,2108.2
2022-12-22T10:13:00.269Z,2583.5
2022-12-22T10:14:00.285Z,2677.9
2022-12-22T10:15:00.330Z,2347.8
2022-12-22T10:16:00.295Z,2347.8
2022-12-22T10:17:00.317Z,2319.9
2022-12-22T10:18:00.275Z,2265.1
2022-12-22T10:19:00.291Z,2034
2022-12-22T10:20:00.316Z,2159.2
2022-12-22T10:21:00.300Z,2492.4
2022-12-22T10:22:00.292Z,2319.9
2022-12-22T10:23:00.282Z,1962.2
2022-12-22T10:24:00.302Z,1544.8
2022-12-22T10:25:00.286Z,1620.5
2022-12-22T10:26:27.440Z,1783.3
2022-12-22T10:27:00.302Z,1720.4
2022-12-22T10:28:00.287Z,1699.9
2022-12-22T10:29:00.346Z,1848.4
2022-12-22T10:30:00.354Z,1938.9
2022-12-22T10:31:00.331Z,2058.4
2022-12-22T10:32:00.396Z,1962.2
2022-12-22T10:33:00.299Z,2133.6
2022-12-22T10:34:00.304Z,2376
2022-12-22T10:35:00.347Z,2809
2022-12-22T10:36:00.341Z,3281.6
2022-12-22T10:37:00.311Z,3483.7
2022-12-22T10:38:00.303Z,3568
2022-12-22T10:39:00.298Z,3442.3
2022-12-22T10:40:00.315Z,3018
2022-12-22T10:41:02.503Z,2319.9
2022-12-22T10:42:00.340Z,1985.8
2022-12-22T10:43:00.356Z,2185.2
2022-12-22T10:44:00.333Z,2433.5
2022-12-22T10:45:00.307Z,2185.2
2022-12-22T10:46:00.417Z,2108.2
2022-12-22T10:47:00.356Z,1985.8
2022-12-22T10:48:00.342Z,1563.4
2022-12-22T10:49:00.330Z,1659.7
2022-12-22T10:51:00.336Z,1159.4
2022-12-22T10:52:00.315Z,1291.2
2022-12-22T10:53:00.349Z,1783.3
2022-12-22T10:54:00.342Z,1544.8
2022-12-22T10:55:00.349Z,1245.7
2022-12-22T10:56:00.363Z,1079.1
2022-12-22T10:57:00.326Z,1159.4
2022-12-22T10:58:05.246Z,1245.7
2022-12-22T10:59:00.341Z,1092.1
2022-12-22T11:00:00.390Z,1118.6
2022-12-22T11:01:00.415Z,1053.6
2022-12-22T11:02:00.568Z,1004.4
2022-12-22T11:03:00.769Z,1159.4
2022-12-22T11:04:00.436Z,1455.2
2022-12-22T11:05:00.383Z,1699.9
2022-12-22T11:06:00.340Z,1354.4
2022-12-22T11:07:00.353Z,1544.8
2022-12-22T11:08:00.347Z,2238.1
2022-12-22T11:09:31.441Z,2347.8
2022-12-22T11:10:00.425Z,2319.9
2022-12-22T11:11:00.351Z,2265.1
2022-12-22T11:12:00.327Z,2319.9
2022-12-22T11:13:00.356Z,2522.4
2022-12-22T11:14:00.365Z,2376
2022-12-22T11:15:00.360Z,2108.2
2022-12-22T11:16:00.361Z,1893.1
2022-12-22T11:17:00.428Z,1720.4
2022-12-22T11:18:00.357Z,1720.4
2022-12-22T11:19:00.376Z,1132
2022-12-22T11:20:00.348Z,1092.1
2022-12-22T11:21:00.392Z,1145.6
2022-12-22T11:22:00.352Z,1275.8
2022-12-22T11:23:00.367Z,1230.8
2022-12-22T11:24:00.381Z,1275.8
2022-12-22T11:25:00.378Z,1620.5
2022-12-22T11:26:01.114Z,1870.6
2022-12-22T11:27:00.788Z,2009.8
2022-12-22T11:28:00.784Z,2058.4
2022-12-22T11:29:00.923Z,1870.6
2022-12-22T11:30:00.689Z,1354.4
2022-12-22T11:31:00.502Z,1066.3
2022-12-22T11:32:00.380Z,946.1
2022-12-22T11:33:00.376Z,859.8
2022-12-22T11:34:00.371Z,901.9
2022-12-22T11:35:00.384Z,880.6
2022-12-22T11:36:00.390Z,1028.7
2022-12-22T11:37:00.397Z,1105.3
2022-12-22T11:38:00.374Z,1338.3
2022-12-22T11:39:00.383Z,1544.8
2022-12-22T11:40:00.475Z,1490.4
2022-12-22T11:41:00.389Z,1679.7
2022-12-22T11:42:00.364Z,2877.1
2022-12-22T11:43:00.384Z,3242.6
2022-12-22T11:44:00.394Z,2009.8
2022-12-22T11:45:00.375Z,2159.2
2022-12-22T11:46:00.396Z,2185.2
2022-12-22T11:47:00.394Z,2108.2
2022-12-22T11:48:00.390Z,2108.2
2022-12-22T11:49:00.392Z,1620.5
2022-12-22T11:50:57.506Z,1275.8
2022-12-22T11:51:08.042Z,1338.3
2022-12-22T11:52:00.379Z,2492.4
2022-12-22T11:53:00.408Z,2775.6
2022-12-22T11:54:05.392Z,2108.2
2022-12-22T11:55:00.406Z,1870.6
2022-12-22T11:56:00.399Z,1870.6
2022-12-22T11:57:00.385Z,1938.9
2022-12-22T11:58:00.378Z,2159.2
2022-12-22T11:59:00.403Z,2211.5
2022-12-22T12:00:00.403Z,1962.2
2022-12-22T12:01:17.585Z,2842.8
2022-12-22T12:02:00.535Z,2677.9
2022-12-22T12:03:00.496Z,2462.8
2022-12-22T12:04:00.534Z,2211.5
2022-12-22T12:05:00.405Z,2742.6
2022-12-22T12:06:00.402Z,2677.9
2022-12-22T12:07:00.407Z,2492.4
2022-12-22T12:08:00.403Z,2742.6
2022-12-22T12:09:00.426Z,1962.2
2022-12-22T12:10:00.400Z,1962.2
2022-12-22T12:11:00.419Z,2742.6
2022-12-22T12:12:00.433Z,3926.3
2022-12-22T12:13:00.455Z,4372.4
2022-12-22T12:14:00.457Z,3926.3
2022-12-22T12:15:00.453Z,2775.6
2022-12-22T12:16:00.448Z,2677.9
2022-12-22T12:17:00.419Z,2809
2022-12-22T12:18:01.036Z,3054.3
2022-12-22T12:19:00.512Z,3128.2
2022-12-22T12:20:00.466Z,2211.5
2022-12-22T12:21:00.424Z,2946.7
2022-12-22T12:22:00.427Z,2265.1
2022-12-22T12:23:00.442Z,1526.4
2022-12-22T12:24:00.433Z,2347.8
2022-12-22T12:25:00.617Z,2492.4
2022-12-22T12:26:00.535Z,2433.5
2022-12-22T12:27:00.509Z,2211.5
2022-12-22T12:28:00.514Z,1915.9
2022-12-22T12:29:00.595Z,2034
2022-12-22T12:30:36.374Z,2614.6
2022-12-22T12:31:00.562Z,2159.2
2022-12-22T12:32:00.714Z,1893.1
2022-12-22T12:33:01.265Z,2982.2
2022-12-22T12:34:00.779Z,1848.4
2022-12-22T12:35:00.468Z,1848.4
2022-12-22T12:36:00.438Z,2159.2
2022-12-22T12:37:00.440Z,1870.6
2022-12-22T12:38:00.423Z,1563.4
2022-12-22T12:39:09.145Z,1201.7
2022-12-22T12:40:00.494Z,1387.2
2022-12-22T12:41:00.475Z,1403.9
2022-12-22T12:42:00.438Z,1620.5
2022-12-22T12:43:00.440Z,1720.4
2022-12-22T12:44:00.475Z,1783.3
2022-12-22T12:45:00.488Z,1848.4
2022-12-22T12:46:00.449Z,1601.3
2022-12-22T12:47:00.485Z,1699.9
2022-12-22T12:48:00.446Z,1985.8
2022-12-22T12:49:00.451Z,2009.8
2022-12-22T12:50:00.445Z,1699.9
2022-12-22T12:51:00.457Z,1508.3
2022-12-22T12:52:00.428Z,1145.6
2022-12-22T12:53:00.460Z,1041.1
2022-12-22T12:54:00.455Z,1053.6
2022-12-22T12:55:00.463Z,1159.4
2022-12-22T12:56:00.456Z,1275.8
2022-12-22T12:57:00.438Z,1338.3
2022-12-22T12:58:00.440Z,1526.4
2022-12-22T12:59:00.457Z,1455.2
2022-12-22T13:00:00.543Z,1420.8
2022-12-22T13:01:00.504Z,1563.4
2022-12-22T13:02:00.698Z,1544.8
2022-12-22T13:03:00.686Z,1762
2022-12-22T13:04:04.147Z,1640
2022-12-22T13:05:00.465Z,1582.3
2022-12-22T13:06:00.474Z,2238.1
2022-12-22T13:07:00.463Z,1354.4
2022-12-22T13:08:00.500Z,1437.9
2022-12-22T13:09:22.278Z,1338.3
2022-12-22T13:10:00.477Z,1201.7
2022-12-22T13:11:00.457Z,980.7
2022-12-22T13:12:13.122Z,1041.1
2022-12-22T13:13:00.489Z,1291.2
2022-12-22T13:14:00.520Z,1455.2
2022-12-22T13:15:00.475Z,1526.4